sensor_id;sensor_type;location;lat;lon;timestamp;pressure;altitude;pressure_sealevel;temperature;humidity
76853;BME280;65825;52.232;10.566;2023-03-24T00:02:01;99451.59;;;11.21;76.90
76853;BME280;65825;52.232;10.566;2023-03-24T00:04:27;99441.97;;;11.20;76.84
76853;BME280;65825;52.232;10.566;2023-03-24T00:06:53;99445.63;;;11.17;76.67
76853;BME280;65825;52.232;10.566;2023-03-24T00:09:19;99436.28;;;11.12;77.28
76853;BME280;65825;52.232;10.566;2023-03-24T00:11:44;99434.47;;;11.12;77.13
76853;BME280;65825;52.232;10.566;2023-03-24T00:14:10;99436.28;;;11.12;77.53
76853;BME280;65825;52.232;10.566;2023-03-24T00:16:39;99440.84;;;11.08;78.01
76853;BME280;65825;52.232;10.566;2023-03-24T00:19:08;99430.47;;;11.05;77.49
76853;BME280;65825;52.232;10.566;2023-03-24T00:21:35;99425.94;;;11.07;77.58
76853;BME280;65825;52.232;10.566;2023-03-24T00:24:02;99425.09;;;11.07;77.87
76853;BME280;65825;52.232;10.566;2023-03-24T00:26:29;99421.66;;;11.05;78.27
76853;BME280;65825;52.232;10.566;2023-03-24T00:28:55;99424.38;;;11.03;78.87
76853;BME280;65825;52.232;10.566;2023-03-24T00:31:21;99417.31;;;11.04;78.08
76853;BME280;65825;52.232;10.566;2023-03-24T00:33:48;99416.31;;;11.06;78.73
76853;BME280;65825;52.232;10.566;2023-03-24T00:36:16;99407.63;;;11.04;78.69
76853;BME280;65825;52.232;10.566;2023-03-24T00:38:43;99416.47;;;11.03;78.56
76853;BME280;65825;52.232;10.566;2023-03-24T00:41:09;99410.28;;;11.20;76.78
76853;BME280;65825;52.232;10.566;2023-03-24T00:43:35;99413.03;;;11.34;76.63
76853;BME280;65825;52.232;10.566;2023-03-24T00:46:03;99394.72;;;11.62;74.18
76853;BME280;65825;52.232;10.566;2023-03-24T00:48:30;99395.84;;;11.73;74.77
76853;BME280;65825;52.232;10.566;2023-03-24T00:50:55;99395.22;;;11.84;73.85
76853;BME280;65825;52.232;10.566;2023-03-24T00:53:21;99401.00;;;11.90;74.29
76853;BME280;65825;52.232;10.566;2023-03-24T00:55:48;99392.72;;;11.96;73.92
76853;BME280;65825;52.232;10.566;2023-03-24T00:58:15;99383.41;;;12.05;73.44
76853;BME280;65825;52.232;10.566;2023-03-24T01:00:46;99388.38;;;12.11;73.37
76853;BME280;65825;52.232;10.566;2023-03-24T01:03:12;99383.91;;;12.11;73.90
76853;BME280;65825;52.232;10.566;2023-03-24T01:05:37;99383.81;;;12.13;74.81
76853;BME280;65825;52.232;10.566;2023-03-24T01:08:04;99364.72;;;12.08;75.00
76853;BME280;65825;52.232;10.566;2023-03-24T01:10:39;99368.97;;;12.10;75.67
76853;BME280;65825;52.232;10.566;2023-03-24T01:13:18;99379.06;;;12.04;75.81
76853;BME280;65825;52.232;10.566;2023-03-24T01:15:43;99370.38;;;12.02;76.41
76853;BME280;65825;52.232;10.566;2023-03-24T01:18:10;99366.69;;;12.04;76.30
76853;BME280;65825;52.232;10.566;2023-03-24T01:20:37;99353.34;;;11.92;77.21
76853;BME280;65825;52.232;10.566;2023-03-24T01:23:06;99350.78;;;11.90;77.51
76853;BME280;65825;52.232;10.566;2023-03-24T01:25:33;99345.84;;;11.84;78.53
76853;BME280;65825;52.232;10.566;2023-03-24T01:28:00;99341.66;;;11.80;78.95
76853;BME280;65825;52.232;10.566;2023-03-24T01:30:27;99347.97;;;11.78;79.29
76853;BME280;65825;52.232;10.566;2023-03-24T01:32:53;99336.56;;;11.77;79.24
76853;BME280;65825;52.232;10.566;2023-03-24T01:35:20;99344.59;;;11.76;79.91
76853;BME280;65825;52.232;10.566;2023-03-24T01:37:46;99324.47;;;11.73;80.54
76853;BME280;65825;52.232;10.566;2023-03-24T01:40:17;99329.56;;;11.76;79.85
76853;BME280;65825;52.232;10.566;2023-03-24T01:42:43;99326.47;;;11.84;79.38
76853;BME280;65825;52.232;10.566;2023-03-24T01:48:32;99307.56;;;11.76;80.39
76853;BME280;65825;52.232;10.566;2023-03-24T01:51:13;99315.13;;;11.82;80.72
76853;BME280;65825;52.232;10.566;2023-03-24T01:53:55;99302.78;;;11.82;80.12
76853;BME280;65825;52.232;10.566;2023-03-24T01:56:23;99294.94;;;11.81;80.14
76853;BME280;65825;52.232;10.566;2023-03-24T01:58:54;99293.25;;;11.80;80.55
76853;BME280;65825;52.232;10.566;2023-03-24T02:01:20;99284.59;;;11.76;80.27
76853;BME280;65825;52.232;10.566;2023-03-24T02:03:46;99285.19;;;11.81;80.58
76853;BME280;65825;52.232;10.566;2023-03-24T02:06:12;99269.91;;;11.86;80.46
76853;BME280;65825;52.232;10.566;2023-03-24T02:08:56;99266.22;;;11.89;80.92
76853;BME280;65825;52.232;10.566;2023-03-24T02:11:24;99260.31;;;11.99;79.96
76853;BME280;65825;52.232;10.566;2023-03-24T02:13:51;99256.81;;;11.99;79.54
76853;BME280;65825;52.232;10.566;2023-03-24T02:30:45;99236.53;;;11.99;79.74
76853;BME280;65825;52.232;10.566;2023-03-24T02:39:46;99225.19;;;11.97;80.38
76853;BME280;65825;52.232;10.566;2023-03-24T02:45:35;99220.47;;;12.02;79.93
76853;BME280;65825;52.232;10.566;2023-03-24T02:50:51;99212.88;;;11.96;80.26
76853;BME280;65825;52.232;10.566;2023-03-24T02:59:00;99193.81;;;12.05;79.40
76853;BME280;65825;52.232;10.566;2023-03-24T03:01:31;99184.84;;;12.08;79.89
76853;BME280;65825;52.232;10.566;2023-03-24T03:04:05;99190.22;;;12.06;79.84
76853;BME280;65825;52.232;10.566;2023-03-24T03:06:35;99178.81;;;12.06;79.91
76853;BME280;65825;52.232;10.566;2023-03-24T03:09:05;99173.31;;;12.09;79.35
76853;BME280;65825;52.232;10.566;2023-03-24T03:11:33;99169.63;;;12.11;79.67
76853;BME280;65825;52.232;10.566;2023-03-24T03:14:01;99168.97;;;12.08;79.34
76853;BME280;65825;52.232;10.566;2023-03-24T03:16:32;99165.69;;;12.04;79.69
76853;BME280;65825;52.232;10.566;2023-03-24T03:19:22;99165.28;;;12.10;79.43
76853;BME280;65825;52.232;10.566;2023-03-24T03:21:51;99174.28;;;12.08;79.55
76853;BME280;65825;52.232;10.566;2023-03-24T03:24:28;99164.63;;;12.07;79.56
76853;BME280;65825;52.232;10.566;2023-03-24T03:27:04;99163.50;;;12.11;79.76
76853;BME280;65825;52.232;10.566;2023-03-24T03:29:37;99160.31;;;12.06;79.08
76853;BME280;65825;52.232;10.566;2023-03-24T03:32:06;99153.84;;;12.10;79.39
76853;BME280;65825;52.232;10.566;2023-03-24T03:34:41;99154.53;;;12.13;79.39
76853;BME280;65825;52.232;10.566;2023-03-24T03:37:19;99148.94;;;12.18;79.21
76853;BME280;65825;52.232;10.566;2023-03-24T03:39:55;99146.97;;;12.21;79.04
76853;BME280;65825;52.232;10.566;2023-03-24T03:42:22;99151.97;;;12.26;79.02
76853;BME280;65825;52.232;10.566;2023-03-24T03:44:48;99143.00;;;12.28;78.93
76853;BME280;65825;52.232;10.566;2023-03-24T03:47:13;99150.06;;;12.28;79.22
76853;BME280;65825;52.232;10.566;2023-03-24T03:49:39;99137.50;;;12.31;78.61
76853;BME280;65825;52.232;10.566;2023-03-24T03:52:05;99141.34;;;12.40;78.48
76853;BME280;65825;52.232;10.566;2023-03-24T03:54:31;99160.44;;;12.45;78.42
76853;BME280;65825;52.232;10.566;2023-03-24T03:56:58;99142.13;;;12.42;78.73
76853;BME280;65825;52.232;10.566;2023-03-24T03:59:34;99144.00;;;12.40;79.04
76853;BME280;65825;52.232;10.566;2023-03-24T04:02:09;99151.94;;;12.40;79.74
76853;BME280;65825;52.232;10.566;2023-03-24T04:04:50;99131.63;;;12.40;79.61
76853;BME280;65825;52.232;10.566;2023-03-24T04:10:30;99130.78;;;12.40;80.82
76853;BME280;65825;52.232;10.566;2023-03-24T04:16:02;99129.09;;;12.25;82.00
76853;BME280;65825;52.232;10.566;2023-03-24T04:19:04;99135.41;;;12.22;82.33
76853;BME280;65825;52.232;10.566;2023-03-24T04:24:21;99115.69;;;12.14;81.75
76853;BME280;65825;52.232;10.566;2023-03-24T04:32:40;99114.84;;;12.13;82.22
76853;BME280;65825;52.232;10.566;2023-03-24T04:35:17;99104.16;;;12.15;82.21
76853;BME280;65825;52.232;10.566;2023-03-24T04:37:45;99102.38;;;12.15;81.19
76853;BME280;65825;52.232;10.566;2023-03-24T04:40:13;99096.78;;;12.20;80.64
76853;BME280;65825;52.232;10.566;2023-03-24T04:42:44;99084.97;;;12.25;80.17
76853;BME280;65825;52.232;10.566;2023-03-24T04:45:12;99077.78;;;12.27;80.38
76853;BME280;65825;52.232;10.566;2023-03-24T04:47:43;99069.28;;;12.22;81.16
76853;BME280;65825;52.232;10.566;2023-03-24T04:50:12;99069.00;;;12.27;80.94
76853;BME280;65825;52.232;10.566;2023-03-24T04:52:39;99055.88;;;12.25;80.97
76853;BME280;65825;52.232;10.566;2023-03-24T04:55:27;99053.22;;;12.25;80.75
76853;BME280;65825;52.232;10.566;2023-03-24T04:57:56;99043.75;;;12.35;80.46
76853;BME280;65825;52.232;10.566;2023-03-24T05:00:21;99045.66;;;12.33;80.43
76853;BME280;65825;52.232;10.566;2023-03-24T05:02:47;99037.81;;;12.32;80.69
76853;BME280;65825;52.232;10.566;2023-03-24T05:05:12;99041.09;;;12.35;80.81
76853;BME280;65825;52.232;10.566;2023-03-24T05:07:38;99048.94;;;12.37;80.19
76853;BME280;65825;52.232;10.566;2023-03-24T05:10:04;99042.13;;;12.47;79.83
76853;BME280;65825;52.232;10.566;2023-03-24T05:12:30;99046.44;;;12.48;80.25
76853;BME280;65825;52.232;10.566;2023-03-24T05:14:55;99028.19;;;12.43;80.70
76853;BME280;65825;52.232;10.566;2023-03-24T05:17:20;99034.34;;;12.44;80.83
76853;BME280;65825;52.232;10.566;2023-03-24T05:19:46;99038.28;;;12.51;80.64
76853;BME280;65825;52.232;10.566;2023-03-24T05:22:11;99040.19;;;12.49;80.66
76853;BME280;65825;52.232;10.566;2023-03-24T05:24:36;99040.00;;;12.52;80.61
76853;BME280;65825;52.232;10.566;2023-03-24T05:27:02;99038.28;;;12.51;80.84
76853;BME280;65825;52.232;10.566;2023-03-24T05:29:27;99036.19;;;12.56;79.50
76853;BME280;65825;52.232;10.566;2023-03-24T05:31:53;99021.06;;;12.58;79.93
76853;BME280;65825;52.232;10.566;2023-03-24T05:34:20;99025.41;;;12.59;79.69
76853;BME280;65825;52.232;10.566;2023-03-24T05:36:46;99033.03;;;12.63;79.85
76853;BME280;65825;52.232;10.566;2023-03-24T05:39:11;99024.28;;;12.63;79.40
76853;BME280;65825;52.232;10.566;2023-03-24T05:41:36;99030.84;;;12.70;79.95
76853;BME280;65825;52.232;10.566;2023-03-24T05:44:01;99023.25;;;12.78;78.87
76853;BME280;65825;52.232;10.566;2023-03-24T05:46:27;99014.25;;;12.80;78.78
76853;BME280;65825;52.232;10.566;2023-03-24T05:48:52;99011.63;;;12.80;79.18
76853;BME280;65825;52.232;10.566;2023-03-24T05:51:18;99005.66;;;12.77;79.45
76853;BME280;65825;52.232;10.566;2023-03-24T05:53:43;99000.69;;;12.85;78.81
76853;BME280;65825;52.232;10.566;2023-03-24T05:56:08;99017.13;;;12.90;78.48
76853;BME280;65825;52.232;10.566;2023-03-24T05:58:36;99005.56;;;12.91;78.28
76853;BME280;65825;52.232;10.566;2023-03-24T06:01:07;99008.22;;;12.91;78.27
76853;BME280;65825;52.232;10.566;2023-03-24T06:03:34;99011.50;;;12.94;78.35
76853;BME280;65825;52.232;10.566;2023-03-24T06:06:05;99013.03;;;12.98;78.35
76853;BME280;65825;52.232;10.566;2023-03-24T06:08:30;98999.47;;;13.03;77.78
76853;BME280;65825;52.232;10.566;2023-03-24T06:10:58;99002.13;;;13.03;77.98
76853;BME280;65825;52.232;10.566;2023-03-24T06:13:28;99012.09;;;12.99;77.63
76853;BME280;65825;52.232;10.566;2023-03-24T06:15:54;99026.81;;;13.03;77.60
76853;BME280;65825;52.232;10.566;2023-03-24T06:18:25;99003.19;;;13.13;77.65
76853;BME280;65825;52.232;10.566;2023-03-24T06:20:54;99001.94;;;13.18;77.06
76853;BME280;65825;52.232;10.566;2023-03-24T06:23:22;99016.88;;;13.19;76.73
76853;BME280;65825;52.232;10.566;2023-03-24T06:25:51;99018.78;;;13.17;77.27
76853;BME280;65825;52.232;10.566;2023-03-24T06:28:16;99008.63;;;13.24;76.66
76853;BME280;65825;52.232;10.566;2023-03-24T06:30:43;99009.38;;;13.26;76.88
76853;BME280;65825;52.232;10.566;2023-03-24T06:33:08;99010.31;;;13.25;76.71
76853;BME280;65825;52.232;10.566;2023-03-24T06:35:35;99008.84;;;13.33;76.41
76853;BME280;65825;52.232;10.566;2023-03-24T06:38:00;98999.72;;;13.37;76.60
76853;BME280;65825;52.232;10.566;2023-03-24T06:40:26;99028.97;;;13.36;76.55
76853;BME280;65825;52.232;10.566;2023-03-24T06:42:51;99015.19;;;13.43;76.04
76853;BME280;65825;52.232;10.566;2023-03-24T06:45:16;99019.09;;;13.50;76.10
76853;BME280;65825;52.232;10.566;2023-03-24T06:47:42;99007.69;;;13.50;75.97
76853;BME280;65825;52.232;10.566;2023-03-24T06:50:08;99003.63;;;13.57;75.70
76853;BME280;65825;52.232;10.566;2023-03-24T06:52:34;99000.53;;;13.75;74.77
76853;BME280;65825;52.232;10.566;2023-03-24T06:55:00;99006.16;;;13.83;74.83
76853;BME280;65825;52.232;10.566;2023-03-24T06:57:25;98998.66;;;14.01;73.91
76853;BME280;65825;52.232;10.566;2023-03-24T06:59:51;99005.69;;;14.02;73.95
76853;BME280;65825;52.232;10.566;2023-03-24T07:02:17;99009.19;;;13.90;74.86
76853;BME280;65825;52.232;10.566;2023-03-24T07:04:42;99009.97;;;13.79;75.82
76853;BME280;65825;52.232;10.566;2023-03-24T07:07:10;99020.59;;;13.67;76.34
76853;BME280;65825;52.232;10.566;2023-03-24T07:09:37;99023.53;;;13.62;76.59
76853;BME280;65825;52.232;10.566;2023-03-24T07:12:04;99038.63;;;13.49;76.94
76853;BME280;65825;52.232;10.566;2023-03-24T07:14:30;99037.56;;;13.39;77.72
76853;BME280;65825;52.232;10.566;2023-03-24T07:16:55;99051.44;;;13.30;79.12
76853;BME280;65825;52.232;10.566;2023-03-24T07:19:20;99041.91;;;13.28;78.60
76853;BME280;65825;52.232;10.566;2023-03-24T07:21:47;99055.16;;;13.28;78.43
76853;BME280;65825;52.232;10.566;2023-03-24T07:24:17;99070.53;;;13.35;78.89
76853;BME280;65825;52.232;10.566;2023-03-24T07:26:42;99057.78;;;13.28;79.59
76853;BME280;65825;52.232;10.566;2023-03-24T07:29:08;99064.59;;;13.32;80.03
76853;BME280;65825;52.232;10.566;2023-03-24T07:31:33;99066.91;;;13.36;80.16
76853;BME280;65825;52.232;10.566;2023-03-24T07:34:03;99076.56;;;13.25;81.47
76853;BME280;65825;52.232;10.566;2023-03-24T07:36:28;99079.00;;;13.28;80.54
76853;BME280;65825;52.232;10.566;2023-03-24T07:38:53;99063.88;;;13.30;79.96
76853;BME280;65825;52.232;10.566;2023-03-24T07:41:19;99080.06;;;13.38;79.79
76853;BME280;65825;52.232;10.566;2023-03-24T07:43:44;99079.44;;;13.47;80.36
76853;BME280;65825;52.232;10.566;2023-03-24T07:46:12;99091.13;;;13.69;79.20
76853;BME280;65825;52.232;10.566;2023-03-24T07:48:37;99099.50;;;13.76;78.89
76853;BME280;65825;52.232;10.566;2023-03-24T07:51:03;99093.34;;;14.00;77.37
76853;BME280;65825;52.232;10.566;2023-03-24T07:53:28;99098.84;;;14.22;76.75
76853;BME280;65825;52.232;10.566;2023-03-24T07:55:53;99099.03;;;14.32;76.00
76853;BME280;65825;52.232;10.566;2023-03-24T07:58:18;99105.75;;;14.25;74.84
76853;BME280;65825;52.232;10.566;2023-03-24T08:00:44;99113.16;;;14.07;74.71
76853;BME280;65825;52.232;10.566;2023-03-24T08:03:12;99121.91;;;13.84;74.33
76853;BME280;65825;52.232;10.566;2023-03-24T08:05:39;99125.59;;;13.82;73.92
76853;BME280;65825;52.232;10.566;2023-03-24T08:08:04;99133.75;;;13.91;74.22
76853;BME280;65825;52.232;10.566;2023-03-24T08:10:31;99130.56;;;14.11;72.89
76853;BME280;65825;52.232;10.566;2023-03-24T08:12:57;99133.50;;;14.44;71.76
76853;BME280;65825;52.232;10.566;2023-03-24T08:15:23;99138.56;;;14.96;69.84
76853;BME280;65825;52.232;10.566;2023-03-24T08:17:50;99136.28;;;15.26;67.56
76853;BME280;65825;52.232;10.566;2023-03-24T08:20:16;99138.59;;;15.65;66.23
76853;BME280;65825;52.232;10.566;2023-03-24T08:22:44;99140.56;;;15.85;65.88
76853;BME280;65825;52.232;10.566;2023-03-24T08:25:15;99158.38;;;15.50;64.95
76853;BME280;65825;52.232;10.566;2023-03-24T08:27:40;99137.81;;;14.94;65.73
76853;BME280;65825;52.232;10.566;2023-03-24T08:30:09;99149.06;;;15.21;66.34
76853;BME280;65825;52.232;10.566;2023-03-24T08:32:35;99155.97;;;15.23;65.00
76853;BME280;65825;52.232;10.566;2023-03-24T08:35:01;99168.88;;;15.40;64.49
76853;BME280;65825;52.232;10.566;2023-03-24T08:37:29;99164.63;;;15.38;65.06
76853;BME280;65825;52.232;10.566;2023-03-24T08:39:54;99164.72;;;15.71;64.38
76853;BME280;65825;52.232;10.566;2023-03-24T08:42:23;99169.66;;;16.10;63.21
76853;BME280;65825;52.232;10.566;2023-03-24T08:44:48;99160.84;;;15.64;63.04
76853;BME280;65825;52.232;10.566;2023-03-24T08:47:13;99161.50;;;15.44;65.04
76853;BME280;65825;52.232;10.566;2023-03-24T08:49:38;99157.19;;;15.30;65.36
76853;BME280;65825;52.232;10.566;2023-03-24T08:52:04;99171.00;;;15.59;64.51
76853;BME280;65825;52.232;10.566;2023-03-24T08:54:29;99174.91;;;15.19;65.17
76853;BME280;65825;52.232;10.566;2023-03-24T08:56:54;99185.78;;;14.92;66.46
76853;BME280;65825;52.232;10.566;2023-03-24T08:59:20;99197.63;;;14.99;66.15
76853;BME280;65825;52.232;10.566;2023-03-24T09:01:45;99187.50;;;14.81;66.10
76853;BME280;65825;52.232;10.566;2023-03-24T09:04:10;99212.03;;;16.24;61.33
76853;BME280;65825;52.232;10.566;2023-03-24T09:06:36;99209.13;;;18.69;52.38
76853;BME280;65825;52.232;10.566;2023-03-24T09:09:01;99217.25;;;22.20;44.27
76853;BME280;65825;52.232;10.566;2023-03-24T09:11:26;99220.38;;;24.63;35.59
76853;BME280;65825;52.232;10.566;2023-03-24T09:13:52;99234.38;;;25.52;34.99
76853;BME280;65825;52.232;10.566;2023-03-24T09:16:18;99212.16;;;24.95;33.65
76853;BME280;65825;52.232;10.566;2023-03-24T09:18:44;99218.16;;;24.42;35.60
76853;BME280;65825;52.232;10.566;2023-03-24T09:21:09;99218.31;;;24.57;35.10
76853;BME280;65825;52.232;10.566;2023-03-24T09:23:35;99222.31;;;24.85;33.89
76853;BME280;65825;52.232;10.566;2023-03-24T09:26:01;99220.81;;;28.29;29.04
76853;BME280;65825;52.232;10.566;2023-03-24T09:28:27;99214.91;;;30.54;24.54
76853;BME280;65825;52.232;10.566;2023-03-24T09:30:59;99197.34;;;32.14;22.29
76853;BME280;65825;52.232;10.566;2023-03-24T09:33:25;99215.69;;;31.19;20.27
76853;BME280;65825;52.232;10.566;2023-03-24T09:35:58;99230.72;;;31.41;21.05
76853;BME280;65825;52.232;10.566;2023-03-24T09:38:24;99226.19;;;33.08;19.96
76853;BME280;65825;52.232;10.566;2023-03-24T09:40:53;99223.06;;;35.51;17.64
76853;BME280;65825;52.232;10.566;2023-03-24T09:46:35;99226.88;;;25.92;27.89
76853;BME280;65825;52.232;10.566;2023-03-24T09:49:03;99221.75;;;22.96;32.98
76853;BME280;65825;52.232;10.566;2023-03-24T09:51:35;99227.91;;;22.12;34.46
76853;BME280;65825;52.232;10.566;2023-03-24T09:56:37;99224.34;;;20.14;38.10
76853;BME280;65825;52.232;10.566;2023-03-24T09:59:06;99234.06;;;18.79;41.90
76853;BME280;65825;52.232;10.566;2023-03-24T10:01:36;99253.09;;;18.15;43.57
76853;BME280;65825;52.232;10.566;2023-03-24T10:04:02;99248.16;;;17.90;44.55
76853;BME280;65825;52.232;10.566;2023-03-24T10:06:32;99247.66;;;18.37;44.07
76853;BME280;65825;52.232;10.566;2023-03-24T10:20:36;99255.41;;;17.14;45.83
76853;BME280;65825;52.232;10.566;2023-03-24T10:23:24;99259.13;;;17.33;45.56
76853;BME280;65825;52.232;10.566;2023-03-24T10:25:59;99269.94;;;17.21;45.58
76853;BME280;65825;52.232;10.566;2023-03-24T10:28:42;99268.78;;;16.81;45.84
76853;BME280;65825;52.232;10.566;2023-03-24T10:31:13;99270.88;;;17.31;44.80
76853;BME280;65825;52.232;10.566;2023-03-24T10:33:44;99264.19;;;17.79;41.98
76853;BME280;65825;52.232;10.566;2023-03-24T10:36:12;99251.09;;;19.08;39.95
76853;BME280;65825;52.232;10.566;2023-03-24T10:38:39;99264.59;;;20.51;36.77
76853;BME280;65825;52.232;10.566;2023-03-24T10:41:05;99279.53;;;24.48;31.23
76853;BME280;65825;52.232;10.566;2023-03-24T10:43:31;99260.84;;;25.18;28.37
76853;BME280;65825;52.232;10.566;2023-03-24T10:45:58;99278.38;;;24.27;28.03
76853;BME280;65825;52.232;10.566;2023-03-24T10:48:40;99293.06;;;34.61;17.03
76853;BME280;65825;52.232;10.566;2023-03-24T10:51:13;99294.97;;;34.72;15.46
76853;BME280;65825;52.232;10.566;2023-03-24T10:53:40;99282.22;;;26.86;23.72
76853;BME280;65825;52.232;10.566;2023-03-24T10:56:06;99303.72;;;26.88;25.74
76853;BME280;65825;52.232;10.566;2023-03-24T10:58:40;99312.28;;;29.25;22.63
76853;BME280;65825;52.232;10.566;2023-03-24T11:01:25;99307.03;;;34.30;16.32
76853;BME280;65825;52.232;10.566;2023-03-24T11:03:57;99339.81;;;33.04;17.53
76853;BME280;65825;52.232;10.566;2023-03-24T11:06:23;99326.28;;;34.94;16.18
76853;BME280;65825;52.232;10.566;2023-03-24T11:09:05;99317.22;;;36.70;13.99
76853;BME280;65825;52.232;10.566;2023-03-24T11:11:31;99314.31;;;37.09;13.43
76853;BME280;65825;52.232;10.566;2023-03-24T11:13:59;99328.16;;;36.53;14.19
76853;BME280;65825;52.232;10.566;2023-03-24T11:16:35;99325.03;;;39.92;11.65
76853;BME280;65825;52.232;10.566;2023-03-24T11:19:03;99314.13;;;37.70;13.16
76853;BME280;65825;52.232;10.566;2023-03-24T11:21:31;99319.72;;;37.21;13.49
76853;BME280;65825;52.232;10.566;2023-03-24T11:24:01;99324.13;;;35.65;14.16
76853;BME280;65825;52.232;10.566;2023-03-24T11:26:30;99320.50;;;38.93;11.99
76853;BME280;65825;52.232;10.566;2023-03-24T11:29:00;99320.72;;;42.55;8.86
76853;BME280;65825;52.232;10.566;2023-03-24T11:31:28;99316.28;;;42.87;8.85
76853;BME280;65825;52.232;10.566;2023-03-24T11:34:16;99295.34;;;40.24;10.36
76853;BME280;65825;52.232;10.566;2023-03-24T11:39:22;99305.44;;;46.38;6.82
76853;BME280;65825;52.232;10.566;2023-03-24T11:49:48;99284.19;;;43.39;8.50
76853;BME280;65825;52.232;10.566;2023-03-24T11:52:19;99275.72;;;44.75;7.40
76853;BME280;65825;52.232;10.566;2023-03-24T11:54:45;99292.44;;;46.20;6.93
76853;BME280;65825;52.232;10.566;2023-03-24T11:57:13;99278.38;;;46.38;6.73
76853;BME280;65825;52.232;10.566;2023-03-24T11:59:47;99281.72;;;44.82;6.83
76853;BME280;65825;52.232;10.566;2023-03-24T12:02:26;99288.53;;;45.08;7.50
76853;BME280;65825;52.232;10.566;2023-03-24T12:05:20;99278.88;;;44.31;6.57
76853;BME280;65825;52.232;10.566;2023-03-24T12:08:22;99290.47;;;43.21;6.77
76853;BME280;65825;52.232;10.566;2023-03-24T12:11:05;99296.06;;;46.20;5.89
76853;BME280;65825;52.232;10.566;2023-03-24T12:13:32;99286.25;;;45.96;6.41
76853;BME280;65825;52.232;10.566;2023-03-24T12:16:04;99252.72;;;38.44;10.81
76853;BME280;65825;52.232;10.566;2023-03-24T12:26:50;99273.06;;;34.02;14.90
76853;BME280;65825;52.232;10.566;2023-03-24T12:29:30;99265.41;;;31.28;16.96
76853;BME280;65825;52.232;10.566;2023-03-24T12:32:13;99262.69;;;30.95;17.24
76853;BME280;65825;52.232;10.566;2023-03-24T12:38:30;99281.84;;;32.09;17.08
76853;BME280;65825;52.232;10.566;2023-03-24T12:40:39;99298.81;;;32.18;16.47
76853;BME280;65825;52.232;10.566;2023-03-24T12:45:57;99292.22;;;27.58;20.42
76853;BME280;65825;52.232;10.566;2023-03-24T12:53:52;99315.13;;;21.11;29.78
76853;BME280;65825;52.232;10.566;2023-03-24T12:56:28;99308.66;;;20.20;31.42
76853;BME280;65825;52.232;10.566;2023-03-24T12:59:02;99306.97;;;20.09;32.70
76853;BME280;65825;52.232;10.566;2023-03-24T13:04:32;99300.59;;;20.39;32.31
76853;BME280;65825;52.232;10.566;2023-03-24T13:07:04;99294.38;;;20.48;31.56
76853;BME280;65825;52.232;10.566;2023-03-24T13:09:45;99283.09;;;22.84;28.31
76853;BME280;65825;52.232;10.566;2023-03-24T13:12:16;99290.97;;;22.52;28.44
76853;BME280;65825;52.232;10.566;2023-03-24T13:17:30;99275.19;;;20.43;32.44
76853;BME280;65825;52.232;10.566;2023-03-24T13:19:57;99265.81;;;21.12;32.19
76853;BME280;65825;52.232;10.566;2023-03-24T13:22:24;99278.78;;;20.70;32.16
76853;BME280;65825;52.232;10.566;2023-03-24T13:24:52;99260.16;;;24.45;26.92
76853;BME280;65825;52.232;10.566;2023-03-24T13:27:24;99264.16;;;22.08;28.99
76853;BME280;65825;52.232;10.566;2023-03-24T13:30:35;99256.91;;;21.83;30.03
76853;BME280;65825;52.232;10.566;2023-03-24T13:33:16;99258.88;;;21.98;29.95
76853;BME280;65825;52.232;10.566;2023-03-24T13:35:56;99260.53;;;20.83;32.13
76853;BME280;65825;52.232;10.566;2023-03-24T13:40:55;99260.06;;;20.51;32.06
76853;BME280;65825;52.232;10.566;2023-03-24T13:43:25;99267.69;;;22.94;29.83
76853;BME280;65825;52.232;10.566;2023-03-24T13:46:03;99263.06;;;21.93;29.45
76853;BME280;65825;52.232;10.566;2023-03-24T13:53:38;99253.63;;;19.78;34.92
76853;BME280;65825;52.232;10.566;2023-03-24T13:56:06;99262.75;;;20.42;33.42
76853;BME280;65825;52.232;10.566;2023-03-24T13:59:04;99262.75;;;20.51;32.90
76853;BME280;65825;52.232;10.566;2023-03-24T14:01:33;99268.00;;;20.34;33.79
76853;BME280;65825;52.232;10.566;2023-03-24T14:06:51;99286.31;;;18.83;35.64
76853;BME280;65825;52.232;10.566;2023-03-24T14:09:27;99295.41;;;18.30;35.68
76853;BME280;65825;52.232;10.566;2023-03-24T14:14:24;99302.78;;;18.79;36.29
76853;BME280;65825;52.232;10.566;2023-03-24T14:21:50;99294.38;;;20.19;33.34
76853;BME280;65825;52.232;10.566;2023-03-24T14:24:23;99288.78;;;20.13;33.32
76853;BME280;65825;52.232;10.566;2023-03-24T14:26:49;99279.72;;;19.76;33.94
76853;BME280;65825;52.232;10.566;2023-03-24T14:32:25;99265.22;;;20.16;33.47
76853;BME280;65825;52.232;10.566;2023-03-24T14:34:58;99268.47;;;20.75;33.02
76853;BME280;65825;52.232;10.566;2023-03-24T14:37:25;99266.19;;;20.80;31.97
76853;BME280;65825;52.232;10.566;2023-03-24T14:39:52;99276.63;;;21.20;31.31
76853;BME280;65825;52.232;10.566;2023-03-24T14:45:03;99294.91;;;18.87;34.53
76853;BME280;65825;52.232;10.566;2023-03-24T14:47:30;99295.22;;;18.93;35.53
76853;BME280;65825;52.232;10.566;2023-03-24T14:49:57;99293.97;;;18.88;35.25
76853;BME280;65825;52.232;10.566;2023-03-24T14:52:36;99299.56;;;18.34;36.40
76853;BME280;65825;52.232;10.566;2023-03-24T14:55:06;99301.41;;;18.23;38.01
76853;BME280;65825;52.232;10.566;2023-03-24T14:57:39;99293.03;;;17.96;37.76
76853;BME280;65825;52.232;10.566;2023-03-24T15:02:44;99296.63;;;17.10;39.35
76853;BME280;65825;52.232;10.566;2023-03-24T15:05:37;99298.91;;;16.59;40.53
76853;BME280;65825;52.232;10.566;2023-03-24T15:08:21;99292.75;;;17.78;38.79
76853;BME280;65825;52.232;10.566;2023-03-24T15:11:05;99301.88;;;17.65;38.83
76853;BME280;65825;52.232;10.566;2023-03-24T15:13:47;99287.88;;;17.41;39.80